createdAt,value
2022-10-09T00:01:13.236Z,13.03
2022-10-09T00:03:17.219Z,13.05
2022-10-09T00:05:19.033Z,13.06
2022-10-09T00:07:20.712Z,13.09
2022-10-09T00:09:22.332Z,13.13
2022-10-09T00:11:26.180Z,13.13
2022-10-09T00:13:27.704Z,13.17
2022-10-09T00:15:29.323Z,13.18
2022-10-09T00:17:30.926Z,13.15
2022-10-09T00:19:32.542Z,13.11
2022-10-09T00:21:34.958Z,13.10
2022-10-09T00:23:36.566Z,13.11
2022-10-09T00:25:38.868Z,13.14
2022-10-09T00:27:40.514Z,13.17
2022-10-09T00:29:42.102Z,13.18
2022-10-09T00:31:43.894Z,13.20
2022-10-09T00:33:45.613Z,13.22
2022-10-09T00:35:47.700Z,13.22
2022-10-09T00:37:49.356Z,13.18
2022-10-09T00:39:51.009Z,13.17
2022-10-09T00:41:52.631Z,13.18
2022-10-09T00:43:55.611Z,13.19
2022-10-09T00:45:57.275Z,13.20
2022-10-09T00:48:04.561Z,13.22
2022-10-09T00:50:13.390Z,13.22
2022-10-09T00:52:15.275Z,13.22
2022-10-09T00:54:18.615Z,13.20
2022-10-09T00:56:20.272Z,13.19
2022-10-09T00:58:22.349Z,13.13
2022-10-09T01:00:24.034Z,13.04
2022-10-09T01:02:25.769Z,12.82
2022-10-09T01:04:27.973Z,12.61
2022-10-09T01:07:01.802Z,12.37
2022-10-09T01:09:18.044Z,11.98
2022-10-09T01:11:42.236Z,11.78
2022-10-09T01:14:05.094Z,11.69
2022-10-09T01:16:23.661Z,11.70
2022-10-09T01:19:10.658Z,11.79
2022-10-09T01:21:20.047Z,11.97
2022-10-09T01:23:27.189Z,12.12
2022-10-09T01:25:36.460Z,12.28
2022-10-09T01:27:38.646Z,12.36
2022-10-09T01:29:49.205Z,12.43
2022-10-09T01:31:52.281Z,12.46
2022-10-09T01:33:54.175Z,12.52
2022-10-09T01:35:55.991Z,12.57
2022-10-09T01:37:58.246Z,12.62
2022-10-09T01:40:00.160Z,12.66
2022-10-09T01:42:02.495Z,12.72
2022-10-09T01:44:04.081Z,12.72
2022-10-09T01:46:28.662Z,12.73
2022-10-09T01:48:30.153Z,12.75
2022-10-09T01:50:34.896Z,12.75
2022-10-09T01:52:52.416Z,12.77
2022-10-09T01:55:09.358Z,12.73
2022-10-09T01:57:13.473Z,12.70
2022-10-09T01:59:17.406Z,12.68
2022-10-09T02:01:27.157Z,12.68
2022-10-09T02:03:30.126Z,12.65
2022-10-09T02:05:32.352Z,12.60
2022-10-09T02:07:34.085Z,12.61
2022-10-09T02:09:37.914Z,12.63
2022-10-09T02:11:42.639Z,12.56
2022-10-09T02:13:46.273Z,12.54
2022-10-09T02:15:52.159Z,12.49
2022-10-09T02:17:54.759Z,12.38
2022-10-09T02:20:07.102Z,12.37
2022-10-09T02:22:18.894Z,12.34
2022-10-09T02:24:22.123Z,12.31
2022-10-09T02:26:24.114Z,12.30
2022-10-09T02:28:25.979Z,12.23
2022-10-09T02:30:30.443Z,12.19
2022-10-09T02:32:32.115Z,12.25
2022-10-09T02:34:33.888Z,12.24
2022-10-09T02:36:36.090Z,12.20
2022-10-09T02:38:37.681Z,12.15
2022-10-09T02:40:39.266Z,12.13
2022-10-09T02:42:40.892Z,12.10
2022-10-09T02:44:42.630Z,12.06
2022-10-09T02:46:44.421Z,12.07
2022-10-09T02:48:46.268Z,12.04
2022-10-09T02:50:48.007Z,12.06
2022-10-09T02:52:49.795Z,12.12
2022-10-09T02:54:51.741Z,12.20
2022-10-09T02:56:53.353Z,12.23
2022-10-09T02:58:55.063Z,12.29
2022-10-09T03:00:56.855Z,12.35
2022-10-09T03:02:58.538Z,12.35
2022-10-09T03:05:00.213Z,12.38
2022-10-09T03:07:02.026Z,12.39
2022-10-09T03:09:04.251Z,12.40
2022-10-09T03:11:06.235Z,12.42
2022-10-09T03:13:08.163Z,12.42
2022-10-09T03:15:10.358Z,12.41
2022-10-09T03:17:11.971Z,12.40
2022-10-09T03:19:13.624Z,12.36
2022-10-09T03:21:17.356Z,12.35
2022-10-09T03:23:18.988Z,12.35
2022-10-09T03:25:20.885Z,12.33
2022-10-09T03:27:22.482Z,12.35
2022-10-09T03:29:24.193Z,12.35
2022-10-09T03:31:50.644Z,12.34
2022-10-09T03:33:48.256Z,12.36
2022-10-09T03:35:50.459Z,12.31
2022-10-09T03:37:52.115Z,12.29
2022-10-09T03:39:53.794Z,12.20
2022-10-09T03:41:55.406Z,12.05
2022-10-09T03:43:56.967Z,11.92
2022-10-09T03:46:01.068Z,11.80
2022-10-09T03:48:03.165Z,11.71
2022-10-09T03:50:05.221Z,11.71
2022-10-09T03:52:06.885Z,11.67
2022-10-09T03:54:08.616Z,11.66
2022-10-09T03:56:10.265Z,11.65
2022-10-09T03:58:11.848Z,11.69
2022-10-09T04:00:14.470Z,11.67
2022-10-09T04:02:16.069Z,11.65
2022-10-09T04:04:17.733Z,11.62
2022-10-09T04:06:19.355Z,11.63
2022-10-09T04:08:21.080Z,11.73
2022-10-09T04:10:22.754Z,11.79
2022-10-09T04:12:24.418Z,11.81
2022-10-09T04:14:26.024Z,11.84
2022-10-09T04:16:27.773Z,11.87
2022-10-09T04:18:29.348Z,11.89
2022-10-09T04:20:30.978Z,11.86
2022-10-09T04:22:32.771Z,11.85
2022-10-09T04:24:34.389Z,11.83
2022-10-09T04:26:36.101Z,11.86
2022-10-09T04:28:37.823Z,11.82
2022-10-09T04:30:39.644Z,11.83
2022-10-09T04:32:41.356Z,11.81
2022-10-09T04:34:43.007Z,11.79
2022-10-09T04:36:44.586Z,11.77
2022-10-09T04:38:46.153Z,11.75
2022-10-09T04:41:02.634Z,11.76
2022-10-09T04:43:04.269Z,11.79
2022-10-09T04:45:06.627Z,11.78
2022-10-09T04:47:11.318Z,11.79
2022-10-09T04:49:14.155Z,11.80
2022-10-09T04:51:17.264Z,11.82
2022-10-09T04:53:18.868Z,11.80
2022-10-09T04:55:20.577Z,11.82
2022-10-09T04:57:22.254Z,11.80
2022-10-09T04:59:23.888Z,11.82
2022-10-09T05:01:27.640Z,11.81
2022-10-09T05:03:29.671Z,11.81
2022-10-09T05:05:32.379Z,11.76
2022-10-09T05:07:33.978Z,11.76
2022-10-09T05:09:35.628Z,11.78
2022-10-09T05:11:42.294Z,11.78
2022-10-09T05:13:47.167Z,11.79
2022-10-09T05:15:49.009Z,11.78
2022-10-09T05:17:50.573Z,11.78
2022-10-09T05:19:52.146Z,11.80
2022-10-09T05:21:53.958Z,11.83
2022-10-09T05:23:55.968Z,11.86
2022-10-09T05:25:59.321Z,11.92
2022-10-09T05:28:01.161Z,11.96
2022-10-09T05:30:03.010Z,12.05
2022-10-09T05:32:04.820Z,12.11
2022-10-09T05:34:06.592Z,12.20
2022-10-09T05:36:08.176Z,12.19
2022-10-09T05:38:09.766Z,12.30
2022-10-09T05:40:11.715Z,12.37
2022-10-09T05:42:13.326Z,12.45
2022-10-09T05:44:14.870Z,12.56
2022-10-09T05:46:19.679Z,12.62
2022-10-09T05:48:22.399Z,12.72
2022-10-09T05:50:23.960Z,12.83
2022-10-09T05:52:25.665Z,12.92
2022-10-09T05:54:27.643Z,13.01
2022-10-09T05:56:31.547Z,13.10
2022-10-09T05:58:33.324Z,13.22
2022-10-09T06:00:34.941Z,13.36
2022-10-09T06:02:36.548Z,13.45
2022-10-09T06:04:38.374Z,13.51
2022-10-09T06:06:40.627Z,13.43
2022-10-09T06:08:42.364Z,13.49
2022-10-09T06:10:43.984Z,13.58
2022-10-09T06:12:45.662Z,13.61
2022-10-09T06:14:47.319Z,13.50
2022-10-09T06:16:49.174Z,13.42
2022-10-09T06:18:50.858Z,13.45
2022-10-09T06:20:56.680Z,13.50
2022-10-09T06:22:58.333Z,13.62
2022-10-09T06:24:59.955Z,13.71
2022-10-09T06:27:01.589Z,13.78
2022-10-09T06:29:03.636Z,13.77
2022-10-09T06:31:09.322Z,13.70
2022-10-09T06:33:10.930Z,13.63
2022-10-09T06:35:12.627Z,13.67
2022-10-09T06:37:14.158Z,13.56
2022-10-09T06:39:15.793Z,13.59
2022-10-09T06:41:22.843Z,13.40
2022-10-09T06:43:24.429Z,13.48
2022-10-09T06:45:26.155Z,13.53
2022-10-09T06:47:27.726Z,13.50
2022-10-09T06:49:29.276Z,13.47
2022-10-09T06:51:31.443Z,13.28
2022-10-09T06:53:37.597Z,13.18
2022-10-09T06:55:39.149Z,13.22
2022-10-09T06:57:40.907Z,13.34
2022-10-09T06:59:42.476Z,13.56
2022-10-09T07:01:44.104Z,13.48
2022-10-09T07:03:48.345Z,13.58
2022-10-09T07:05:49.913Z,13.61
2022-10-09T07:07:51.456Z,13.55
2022-10-09T07:09:53.677Z,13.53
2022-10-09T07:11:55.337Z,13.62
2022-10-09T07:13:58.788Z,13.75
2022-10-09T07:16:04.652Z,13.86
2022-10-09T07:18:06.620Z,14.07
2022-10-09T07:20:08.325Z,14.22
2022-10-09T07:22:11.572Z,14.11
2022-10-09T07:24:13.702Z,14.06
2022-10-09T07:26:19.235Z,13.67
2022-10-09T07:28:21.164Z,13.74
2022-10-09T07:30:22.953Z,13.98
2022-10-09T07:32:24.616Z,14.24
2022-10-09T07:34:26.394Z,14.51
2022-10-09T07:36:27.958Z,14.59
2022-10-09T07:38:29.660Z,14.78
2022-10-09T07:40:34.490Z,14.94
2022-10-09T07:42:36.111Z,15.19
2022-10-09T07:44:37.705Z,15.27
2022-10-09T07:46:39.429Z,15.06
2022-10-09T07:48:41.452Z,15.11
2022-10-09T07:50:43.027Z,15.06
2022-10-09T07:52:44.583Z,15.00
2022-10-09T07:54:46.189Z,15.04
2022-10-09T07:56:47.777Z,15.36
2022-10-09T07:58:54.119Z,15.39
2022-10-09T08:00:55.835Z,15.59
2022-10-09T08:02:57.405Z,15.79
2022-10-09T08:04:59.005Z,16.07
2022-10-09T08:07:00.740Z,16.07
2022-10-09T08:09:04.233Z,16.10
2022-10-09T08:11:10.904Z,16.21
2022-10-09T08:13:12.575Z,16.28
2022-10-09T08:15:14.341Z,16.44
2022-10-09T08:17:16.694Z,16.61
2022-10-09T08:19:18.440Z,16.88
2022-10-09T08:21:20.070Z,16.94
2022-10-09T08:23:21.618Z,16.92
2022-10-09T08:25:23.276Z,16.72
2022-10-09T08:27:24.879Z,16.64
2022-10-09T08:29:26.457Z,16.58
2022-10-09T08:31:28.690Z,16.72
2022-10-09T08:33:30.274Z,16.86
2022-10-09T08:35:34.537Z,16.86
2022-10-09T08:37:36.506Z,16.94
2022-10-09T08:39:38.165Z,17.19
2022-10-09T08:41:51.851Z,17.19
2022-10-09T08:44:02.419Z,17.21
2022-10-09T08:46:07.715Z,17.13
2022-10-09T08:48:20.973Z,16.93
2022-10-09T08:50:36.184Z,17.16
2022-10-09T08:53:08.607Z,17.23
2022-10-09T08:55:18.013Z,17.30
2022-10-09T08:57:21.619Z,17.22
2022-10-09T08:59:23.410Z,17.25
2022-10-09T09:01:39.976Z,17.38
2022-10-09T09:03:44.580Z,17.34
2022-10-09T09:05:50.991Z,17.50
2022-10-09T09:08:16.915Z,17.54
2022-10-09T09:10:33.807Z,17.89
2022-10-09T09:12:49.336Z,17.99
2022-10-09T09:15:15.655Z,18.27
2022-10-09T09:17:23.056Z,18.56
2022-10-09T09:19:36.542Z,18.67
2022-10-09T09:21:41.316Z,18.75
2022-10-09T09:23:47.740Z,18.78
2022-10-09T09:25:49.581Z,19.04
2022-10-09T09:27:53.145Z,19.08
2022-10-09T09:29:59.551Z,18.73
2022-10-09T09:32:01.441Z,18.49
2022-10-09T09:34:10.984Z,18.48
2022-10-09T09:36:23.090Z,18.67
2022-10-09T09:38:24.771Z,18.72
2022-10-09T09:40:37.987Z,18.41
2022-10-09T09:42:40.737Z,18.53
2022-10-09T09:44:47.002Z,18.82
2022-10-09T09:46:49.586Z,18.99
2022-10-09T09:48:51.621Z,19.12
2022-10-09T09:51:10.284Z,18.92
2022-10-09T09:53:26.381Z,19.21
2022-10-09T09:55:29.997Z,19.55
2022-10-09T09:57:33.283Z,19.36
2022-10-09T09:59:40.228Z,19.42
2022-10-09T10:01:42.565Z,19.61
2022-10-09T10:03:50.272Z,19.81
2022-10-09T10:05:51.998Z,19.61
2022-10-09T10:07:53.837Z,19.70
2022-10-09T10:10:07.290Z,19.52
2022-10-09T10:12:16.661Z,19.64
2022-10-09T10:14:18.255Z,19.16
2022-10-09T10:16:24.371Z,19.51
2022-10-09T10:18:28.959Z,19.77
2022-10-09T10:20:32.274Z,19.73
2022-10-09T10:22:34.236Z,19.83
2022-10-09T10:24:41.754Z,20.04
2022-10-09T10:26:56.462Z,20.21
2022-10-09T10:29:02.182Z,20.20
2022-10-09T10:31:06.296Z,19.83
2022-10-09T10:33:23.256Z,20.17
2022-10-09T10:35:27.902Z,20.41
2022-10-09T10:37:51.166Z,20.48
2022-10-09T10:39:57.311Z,20.14
2022-10-09T10:42:01.709Z,19.93
2022-10-09T10:44:23.469Z,19.82
2022-10-09T10:46:37.346Z,19.61
2022-10-09T10:48:47.012Z,19.68
2022-10-09T10:50:59.553Z,19.76
2022-10-09T10:53:27.460Z,20.04
2022-10-09T10:55:55.856Z,19.89
2022-10-09T10:58:14.898Z,19.82
2022-10-09T11:00:17.551Z,19.79
2022-10-09T11:02:53.839Z,19.84
2022-10-09T11:05:17.559Z,19.94
2022-10-09T11:07:37.092Z,20.11
2022-10-09T11:10:02.966Z,20.26
2022-10-09T11:12:43.416Z,20.71
2022-10-09T11:14:57.234Z,21.10
2022-10-09T11:17:17.490Z,21.28
2022-10-09T11:19:32.407Z,21.51
2022-10-09T11:21:59.083Z,21.51
2022-10-09T11:24:28.317Z,21.01
2022-10-09T11:26:50.249Z,21.07
2022-10-09T11:29:17.893Z,21.18
2022-10-09T11:31:41.916Z,21.37
2022-10-09T11:33:46.554Z,21.53
2022-10-09T11:36:01.797Z,21.77
2022-10-09T11:38:08.183Z,21.74
2022-10-09T11:40:19.729Z,21.07
2022-10-09T11:42:23.492Z,20.68
2022-10-09T11:44:40.275Z,20.33
2022-10-09T11:47:10.051Z,20.62
2022-10-09T11:49:25.380Z,20.98
2022-10-09T11:51:47.341Z,21.27
2022-10-09T11:53:51.038Z,21.46
2022-10-09T11:56:06.153Z,21.49
2022-10-09T11:58:22.541Z,21.73
2022-10-09T12:00:33.032Z,21.48
2022-10-09T12:02:35.725Z,21.02
2022-10-09T12:04:53.917Z,20.75
2022-10-09T12:07:07.148Z,21.04
2022-10-09T12:09:08.775Z,21.22
2022-10-09T12:11:33.608Z,21.04
2022-10-09T12:13:53.617Z,21.33
2022-10-09T12:15:57.104Z,21.56
2022-10-09T12:17:58.720Z,21.65
2022-10-09T12:20:09.347Z,21.68
2022-10-09T12:22:19.806Z,21.59
2022-10-09T12:24:25.465Z,21.45
2022-10-09T12:26:27.118Z,21.53
2022-10-09T12:28:50.487Z,21.64
2022-10-09T12:30:52.209Z,21.65
2022-10-09T12:33:07.792Z,21.72
2022-10-09T12:35:20.655Z,21.74
2022-10-09T12:37:34.612Z,21.82
2022-10-09T12:39:37.546Z,21.82
2022-10-09T12:41:39.557Z,21.89
2022-10-09T12:43:45.395Z,21.95
2022-10-09T12:45:48.328Z,21.86
2022-10-09T12:47:51.840Z,21.91
2022-10-09T12:50:01.043Z,21.89
2022-10-09T12:52:03.016Z,21.83
2022-10-09T12:54:09.377Z,21.80
2022-10-09T12:56:11.729Z,21.89
2022-10-09T12:58:29.330Z,21.94
2022-10-09T13:00:32.523Z,22.00
2022-10-09T13:02:34.192Z,21.93
2022-10-09T13:04:35.929Z,21.74
2022-10-09T13:06:45.497Z,21.51
2022-10-09T13:09:02.534Z,21.35
2022-10-09T13:11:16.863Z,21.19
2022-10-09T13:13:25.296Z,21.37
2022-10-09T13:15:38.029Z,21.05
2022-10-09T13:17:41.566Z,21.14
2022-10-09T13:19:50.065Z,21.27
2022-10-09T13:22:17.412Z,21.43
2022-10-09T13:24:19.016Z,21.53
2022-10-09T13:26:24.628Z,21.55
2022-10-09T13:28:26.738Z,21.57
2022-10-09T13:30:28.526Z,21.53
2022-10-09T13:32:31.039Z,21.45
2022-10-09T13:34:32.845Z,21.43
2022-10-09T13:36:34.477Z,21.47
2022-10-09T13:38:54.804Z,21.61
2022-10-09T13:40:57.255Z,21.65
2022-10-09T13:43:02.270Z,21.73
2022-10-09T13:45:05.197Z,21.72
2022-10-09T13:47:07.141Z,21.79
2022-10-09T13:49:08.735Z,21.79
2022-10-09T13:51:11.431Z,21.46
2022-10-09T13:53:13.077Z,21.49
2022-10-09T13:55:15.331Z,21.55
2022-10-09T13:57:17.132Z,21.59
2022-10-09T13:59:19.064Z,21.60
2022-10-09T14:01:20.838Z,21.72
2022-10-09T14:03:22.522Z,21.73
2022-10-09T14:05:26.684Z,21.74
2022-10-09T14:07:28.313Z,21.61
2022-10-09T14:09:29.878Z,21.65
2022-10-09T14:11:32.211Z,21.75
2022-10-09T14:13:33.809Z,21.78
2022-10-09T14:15:39.311Z,21.83
2022-10-09T14:17:41.125Z,21.79
2022-10-09T14:19:42.783Z,21.78
2022-10-09T14:21:44.454Z,21.80
2022-10-09T14:23:46.421Z,21.81
2022-10-09T14:25:48.116Z,21.88
2022-10-09T14:27:49.700Z,21.90
2022-10-09T14:29:54.064Z,21.99
2022-10-09T14:31:58.261Z,22.00
2022-10-09T14:33:59.913Z,22.04
2022-10-09T14:36:07.019Z,22.05
2022-10-09T14:38:08.614Z,22.02
2022-10-09T14:40:11.704Z,21.99
2022-10-09T14:42:13.336Z,22.00
2022-10-09T14:44:14.960Z,21.99
2022-10-09T14:46:18.185Z,22.01
2022-10-09T14:48:19.798Z,22.00
2022-10-09T14:50:21.362Z,21.96
2022-10-09T14:52:22.999Z,21.82
2022-10-09T14:54:24.643Z,21.66
2022-10-09T14:56:26.937Z,21.45
2022-10-09T14:58:30.520Z,21.22
2022-10-09T15:00:31.958Z,21.12
2022-10-09T15:02:33.807Z,20.94
2022-10-09T15:04:35.482Z,20.82
2022-10-09T15:06:37.082Z,20.78
2022-10-09T15:08:40.660Z,20.71
2022-10-09T15:10:43.360Z,20.78
2022-10-09T15:12:44.961Z,20.87
2022-10-09T15:14:47.172Z,20.93
2022-10-09T15:16:48.816Z,21.01
2022-10-09T15:18:52.231Z,21.02
2022-10-09T15:20:53.885Z,20.96
2022-10-09T15:22:55.435Z,20.83
2022-10-09T15:24:57.019Z,20.75
2022-10-09T15:26:58.668Z,20.66
2022-10-09T15:29:04.995Z,20.56
2022-10-09T15:31:09.801Z,20.54
2022-10-09T15:33:11.423Z,20.41
2022-10-09T15:35:12.959Z,20.28
2022-10-09T15:37:14.767Z,20.20
2022-10-09T15:39:16.380Z,20.15
2022-10-09T15:41:29.697Z,20.05
2022-10-09T15:43:37.553Z,20.01
2022-10-09T15:45:42.370Z,19.95
2022-10-09T15:47:51.556Z,19.90
2022-10-09T15:49:53.958Z,19.88
2022-10-09T15:51:55.604Z,19.83
2022-10-09T15:54:00.513Z,19.77
2022-10-09T15:56:06.538Z,19.70
2022-10-09T15:58:08.443Z,19.63
2022-10-09T16:00:10.662Z,19.54
2022-10-09T16:02:12.329Z,19.46
2022-10-09T16:04:15.866Z,19.42
2022-10-09T16:06:22.650Z,19.38
2022-10-09T16:08:24.392Z,19.32
2022-10-09T16:10:26.753Z,19.30
2022-10-09T16:12:31.458Z,19.18
2022-10-09T16:14:33.536Z,19.20
2022-10-09T16:16:35.168Z,19.15
2022-10-09T16:18:36.836Z,19.11
2022-10-09T16:20:39.310Z,19.14
2022-10-09T16:22:41.009Z,19.05
2022-10-09T16:24:42.660Z,18.96
2022-10-09T16:26:44.718Z,18.94
2022-10-09T16:28:47.249Z,18.92
2022-10-09T16:30:48.841Z,18.87
2022-10-09T16:32:50.712Z,18.83
2022-10-09T16:34:52.496Z,18.79
2022-10-09T16:36:54.070Z,18.71
2022-10-09T16:38:56.645Z,18.70
2022-10-09T16:41:02.039Z,18.69
2022-10-09T16:43:04.222Z,18.65
2022-10-09T16:45:06.531Z,18.60
2022-10-09T16:47:08.117Z,18.59
2022-10-09T16:49:15.272Z,18.57
2022-10-09T16:51:25.802Z,18.55
2022-10-09T16:53:27.385Z,18.51
2022-10-09T16:55:29.038Z,18.46
2022-10-09T16:57:30.614Z,18.39
2022-10-09T16:59:32.342Z,18.32
2022-10-09T17:01:38.210Z,18.31
2022-10-09T17:03:41.241Z,18.28
2022-10-09T17:05:43.970Z,18.22
2022-10-09T17:07:45.863Z,18.21
2022-10-09T17:09:47.445Z,18.19
2022-10-09T17:11:49.320Z,18.16
2022-10-09T17:13:52.316Z,18.16
2022-10-09T17:15:53.870Z,18.10
2022-10-09T17:17:55.649Z,18.04
2022-10-09T17:19:57.261Z,18.00
2022-10-09T17:22:00.086Z,17.98
2022-10-09T17:24:02.853Z,17.97
2022-10-09T17:26:08.842Z,17.99
2022-10-09T17:28:10.455Z,17.96
2022-10-09T17:30:12.671Z,17.94
2022-10-09T17:32:14.661Z,17.94
2022-10-09T17:34:16.507Z,17.90
2022-10-09T17:36:23.044Z,17.89
2022-10-09T17:38:24.871Z,17.73
2022-10-09T17:40:26.520Z,17.71
2022-10-09T17:42:28.134Z,17.68
2022-10-09T17:44:32.052Z,17.73
2022-10-09T17:46:33.654Z,17.72
2022-10-09T17:48:36.187Z,17.73
2022-10-09T17:50:38.282Z,17.71
2022-10-09T17:52:39.952Z,17.71
2022-10-09T17:54:41.708Z,17.71
2022-10-09T17:56:43.558Z,17.71
2022-10-09T17:58:47.520Z,17.70
2022-10-09T18:00:49.918Z,17.65
2022-10-09T18:02:51.786Z,17.59
2022-10-09T18:04:57.322Z,17.50
2022-10-09T18:06:58.967Z,17.55
2022-10-09T18:11:21.300Z,17.62
2022-10-09T18:13:22.851Z,17.64
2022-10-09T18:15:24.456Z,17.64
2022-10-09T18:17:28.731Z,17.64
2022-10-09T18:19:30.423Z,17.65
2022-10-09T18:21:32.197Z,17.64
2022-10-09T18:23:34.564Z,17.63
2022-10-09T18:25:41.347Z,17.62
2022-10-09T18:27:42.920Z,17.59
2022-10-09T18:29:44.509Z,17.60
2022-10-09T18:31:46.118Z,17.60
2022-10-09T18:33:48.103Z,17.60
2022-10-09T18:35:49.910Z,17.55
2022-10-09T18:37:51.904Z,17.55
2022-10-09T18:39:53.569Z,17.54
2022-10-09T18:41:58.177Z,17.56
2022-10-09T18:44:00.893Z,17.55
2022-10-09T18:46:03.367Z,17.58
2022-10-09T18:48:05.958Z,17.58
2022-10-09T18:50:10.205Z,17.57
2022-10-09T18:52:12.397Z,17.52
2022-10-09T18:54:17.953Z,17.50
2022-10-09T18:56:21.815Z,17.49
2022-10-09T18:58:23.905Z,17.51
2022-10-09T19:00:25.853Z,17.47
2022-10-09T19:02:27.646Z,17.42
2022-10-09T19:04:29.442Z,17.42
2022-10-09T19:06:31.267Z,17.41
2022-10-09T19:08:34.031Z,17.39
2022-10-09T19:10:35.654Z,17.40
2022-10-09T19:12:37.397Z,17.38
2022-10-09T19:14:39.037Z,17.35
2022-10-09T19:16:40.724Z,17.36
2022-10-09T19:18:42.291Z,17.36
2022-10-09T19:20:43.914Z,17.34
2022-10-09T19:22:45.769Z,17.33
2022-10-09T19:24:47.512Z,17.31
2022-10-09T19:26:49.119Z,17.30
2022-10-09T19:28:51.090Z,17.30
2022-10-09T19:30:52.721Z,17.31
2022-10-09T19:32:54.280Z,17.30
2022-10-09T19:34:55.942Z,17.29
2022-10-09T19:36:57.881Z,17.30
2022-10-09T19:39:00.724Z,17.27
2022-10-09T19:41:04.675Z,17.24
2022-10-09T19:43:06.298Z,17.21
2022-10-09T19:45:08.674Z,17.19
2022-10-09T19:47:11.925Z,17.18
2022-10-09T19:49:13.644Z,17.12
2022-10-09T19:51:21.078Z,17.10
2022-10-09T19:53:22.949Z,17.07
2022-10-09T19:55:27.689Z,17.04
2022-10-09T19:57:32.316Z,16.99
2022-10-09T19:59:33.913Z,17.01
2022-10-09T20:01:37.583Z,16.99
2022-10-09T20:03:39.245Z,16.98
2022-10-09T20:05:41.101Z,16.99
2022-10-09T20:07:42.765Z,16.99
2022-10-09T20:09:44.336Z,16.97
2022-10-09T20:11:46.239Z,16.97
2022-10-09T20:13:53.374Z,16.93
2022-10-09T20:15:59.952Z,16.89
2022-10-09T20:18:01.624Z,16.86
2022-10-09T20:20:05.491Z,16.82
2022-10-09T20:22:07.100Z,16.81
2022-10-09T20:24:08.953Z,16.77
2022-10-09T20:26:15.949Z,16.74
2022-10-09T20:28:17.617Z,16.71
2022-10-09T20:30:19.312Z,16.68
2022-10-09T20:32:20.937Z,16.65
2022-10-09T20:34:23.017Z,16.59
2022-10-09T20:36:28.794Z,16.59
2022-10-09T20:38:30.366Z,16.58
2022-10-09T20:40:33.498Z,16.58
2022-10-09T20:42:35.289Z,16.56
2022-10-09T20:44:36.850Z,16.55
2022-10-09T20:46:39.962Z,16.52
2022-10-09T20:48:44.719Z,16.52
2022-10-09T20:50:46.342Z,16.52
2022-10-09T20:52:48.177Z,16.53
2022-10-09T20:54:50.041Z,16.50
2022-10-09T20:56:52.050Z,16.49
2022-10-09T20:58:54.265Z,16.46
2022-10-09T21:00:56.095Z,16.48
2022-10-09T21:02:57.799Z,16.44
2022-10-09T21:04:59.549Z,16.46
2022-10-09T21:07:01.168Z,16.41
2022-10-09T21:09:03.638Z,16.36
2022-10-09T21:11:07.433Z,16.33
2022-10-09T21:13:08.885Z,16.33
2022-10-09T21:15:10.898Z,16.28
2022-10-09T21:17:12.668Z,16.30
2022-10-09T21:19:14.301Z,16.27
2022-10-09T21:21:17.390Z,16.29
2022-10-09T21:23:19.339Z,16.24
2022-10-09T21:25:20.893Z,16.23
2022-10-09T21:27:22.524Z,16.20
2022-10-09T21:29:24.219Z,16.17
2022-10-09T21:31:28.772Z,16.20
2022-10-09T21:33:30.531Z,16.20
2022-10-09T21:35:32.127Z,16.18
2022-10-09T21:37:37.416Z,16.18
2022-10-09T21:39:39.338Z,16.17
2022-10-09T21:41:41.221Z,16.15
2022-10-09T21:43:42.776Z,16.08
2022-10-09T21:45:45.797Z,16.06
2022-10-09T21:47:47.457Z,16.04
2022-10-09T21:49:49.053Z,16.03
2022-10-09T21:51:50.721Z,16.02
2022-10-09T21:53:54.709Z,16.01
2022-10-09T21:55:56.449Z,15.99
2022-10-09T21:57:58.030Z,15.97
2022-10-09T21:59:59.787Z,15.96
2022-10-09T22:02:02.353Z,15.95
2022-10-09T22:04:04.121Z,15.91
2022-10-09T22:06:09.456Z,15.86
2022-10-09T22:08:11.033Z,15.84
2022-10-09T22:10:12.639Z,15.84
2022-10-09T22:12:14.403Z,15.84
2022-10-09T22:14:16.010Z,15.83
2022-10-09T22:16:17.684Z,15.82
2022-10-09T22:18:19.382Z,15.80
2022-10-09T22:20:21.527Z,15.74
2022-10-09T22:22:24.058Z,15.75
2022-10-09T22:24:29.086Z,15.74
2022-10-09T22:26:30.976Z,15.74
2022-10-09T22:28:33.066Z,15.76
2022-10-09T22:30:34.802Z,15.75
2022-10-09T22:32:36.426Z,15.70
2022-10-09T22:34:38.141Z,15.65
2022-10-09T22:36:39.741Z,15.62
2022-10-09T22:38:42.235Z,15.56
2022-10-09T22:40:47.145Z,15.56
2022-10-09T22:42:49.243Z,15.50
2022-10-09T22:44:51.029Z,15.47
2022-10-09T22:46:52.637Z,15.45
2022-10-09T22:48:54.702Z,15.44
2022-10-09T22:50:56.329Z,15.38
2022-10-09T22:52:58.165Z,15.31
2022-10-09T22:55:00.665Z,15.22
2022-10-09T22:57:02.333Z,15.18
2022-10-09T22:59:05.020Z,15.17
2022-10-09T23:01:13.029Z,15.19
2022-10-09T23:03:14.673Z,15.20
2022-10-09T23:05:16.341Z,15.15
2022-10-09T23:07:17.983Z,15.17
2022-10-09T23:09:20.340Z,15.22
2022-10-09T23:11:22.710Z,15.21
2022-10-09T23:13:24.456Z,15.17
2022-10-09T23:15:26.128Z,15.13
2022-10-09T23:17:27.696Z,15.14
2022-10-09T23:19:29.477Z,15.11
2022-10-09T23:21:31.183Z,15.09
2022-10-09T23:23:34.141Z,15.11
2022-10-09T23:25:40.791Z,15.11
2022-10-09T23:27:42.383Z,15.13
2022-10-09T23:29:43.985Z,15.13
2022-10-09T23:31:46.200Z,15.12
2022-10-09T23:33:48.147Z,15.13
2022-10-09T23:35:49.733Z,15.15
2022-10-09T23:37:54.687Z,15.17
2022-10-09T23:39:56.261Z,15.16
2022-10-09T23:41:57.846Z,15.12
2022-10-09T23:43:59.616Z,15.09
2022-10-09T23:46:03.624Z,15.09
2022-10-09T23:48:05.285Z,15.09
2022-10-09T23:50:07.126Z,15.05
2022-10-09T23:52:08.777Z,15.03
2022-10-09T23:54:10.430Z,15.03
2022-10-09T23:56:20.073Z,15.03
2022-10-09T23:58:22.179Z,15.03
